Allwood, New Jersey
Current Conditions -  °F | °C
As of 4:51 PM on Thursday 23 Oct 2014 (Local Time) from KTEB Reporting Station
Overcast Overcast  
Wind Chill: 54°   Ceiling: 3300
Heat Index: 54°   Visibility: 10mi
Dew Point: 46°   Wind: 14mph
Humidity: 75%   Direction: 350°N
Pressure: 29.71"   Gusts: 26mph
Location:  40.8469°N, 74.1593°W
Report Text: KTEB 232051Z 35012G23KT 10SM OVC033 12/08 A2971 RMK AO2 SLP060 60001 T01220078 53001
Loading
Personal Weather Stations






























Interactive Weather Map New forecast layout! Learn more

10-Day Weather Forecast

Advertisements
Track Severe Weather on mobile